sensor_id;sensor_type;location;lat;lon;timestamp;temperature;humidity
34837;DHT22;21053;50.848;4.652;2023-12-14T00:01:22;9.80;99.90
34837;DHT22;21053;50.848;4.652;2023-12-14T00:03:48;9.80;99.90
34837;DHT22;21053;50.848;4.652;2023-12-14T00:06:14;9.70;99.90
34837;DHT22;21053;50.848;4.652;2023-12-14T00:08:40;9.70;99.90
34837;DHT22;21053;50.848;4.652;2023-12-14T00:11:07;9.60;99.90
34837;DHT22;21053;50.848;4.652;2023-12-14T00:13:33;9.60;99.90
34837;DHT22;21053;50.848;4.652;2023-12-14T00:16:03;9.50;99.90
34837;DHT22;21053;50.848;4.652;2023-12-14T00:18:29;9.60;99.90
34837;DHT22;21053;50.848;4.652;2023-12-14T00:20:54;9.60;99.90
34837;DHT22;21053;50.848;4.652;2023-12-14T00:23:23;9.50;99.90
34837;DHT22;21053;50.848;4.652;2023-12-14T00:25:49;9.50;99.90
34837;DHT22;21053;50.848;4.652;2023-12-14T00:28:15;9.50;99.90
34837;DHT22;21053;50.848;4.652;2023-12-14T00:30:42;9.50;99.90
34837;DHT22;21053;50.848;4.652;2023-12-14T00:33:08;9.60;99.90
34837;DHT22;21053;50.848;4.652;2023-12-14T00:35:33;9.70;99.90
34837;DHT22;21053;50.848;4.652;2023-12-14T00:37:59;9.70;99.90
34837;DHT22;21053;50.848;4.652;2023-12-14T00:40:25;9.70;99.90
34837;DHT22;21053;50.848;4.652;2023-12-14T00:42:51;9.70;99.90
34837;DHT22;21053;50.848;4.652;2023-12-14T00:45:17;9.70;99.90
34837;DHT22;21053;50.848;4.652;2023-12-14T00:47:43;9.60;99.90
34837;DHT22;21053;50.848;4.652;2023-12-14T00:50:09;9.60;99.90
34837;DHT22;21053;50.848;4.652;2023-12-14T00:52:35;9.60;99.90
34837;DHT22;21053;50.848;4.652;2023-12-14T00:55:02;9.60;99.90
34837;DHT22;21053;50.848;4.652;2023-12-14T00:57:28;9.60;99.90
34837;DHT22;21053;50.848;4.652;2023-12-14T00:59:54;9.60;99.90
34837;DHT22;21053;50.848;4.652;2023-12-14T01:02:20;9.60;99.90
34837;DHT22;21053;50.848;4.652;2023-12-14T01:04:47;9.60;99.90
34837;DHT22;21053;50.848;4.652;2023-12-14T01:07:12;9.60;99.90
34837;DHT22;21053;50.848;4.652;2023-12-14T01:09:39;9.70;99.90
34837;DHT22;21053;50.848;4.652;2023-12-14T01:12:05;9.60;99.90
34837;DHT22;21053;50.848;4.652;2023-12-14T01:14:31;9.50;99.90
34837;DHT22;21053;50.848;4.652;2023-12-14T01:16:59;9.60;99.90
34837;DHT22;21053;50.848;4.652;2023-12-14T01:19:24;9.60;99.90
34837;DHT22;21053;50.848;4.652;2023-12-14T01:21:51;9.60;99.90
34837;DHT22;21053;50.848;4.652;2023-12-14T01:24:17;9.60;99.90
34837;DHT22;21053;50.848;4.652;2023-12-14T01:26:42;9.70;99.90
34837;DHT22;21053;50.848;4.652;2023-12-14T01:29:08;9.60;99.90
34837;DHT22;21053;50.848;4.652;2023-12-14T01:31:34;9.60;99.90
34837;DHT22;21053;50.848;4.652;2023-12-14T01:34:00;9.70;99.90
34837;DHT22;21053;50.848;4.652;2023-12-14T01:36:26;9.70;99.90
34837;DHT22;21053;50.848;4.652;2023-12-14T01:38:52;9.60;99.90
34837;DHT22;21053;50.848;4.652;2023-12-14T01:41:18;9.60;99.90
34837;DHT22;21053;50.848;4.652;2023-12-14T01:43:44;9.70;99.90
34837;DHT22;21053;50.848;4.652;2023-12-14T01:46:12;9.80;99.90
34837;DHT22;21053;50.848;4.652;2023-12-14T01:48:39;9.70;99.90
34837;DHT22;21053;50.848;4.652;2023-12-14T01:51:06;9.60;99.90
34837;DHT22;21053;50.848;4.652;2023-12-14T01:53:31;9.60;99.90
34837;DHT22;21053;50.848;4.652;2023-12-14T01:55:57;9.50;99.90
34837;DHT22;21053;50.848;4.652;2023-12-14T01:58:23;9.40;99.90
34837;DHT22;21053;50.848;4.652;2023-12-14T02:01:08;9.30;99.90
34837;DHT22;21053;50.848;4.652;2023-12-14T02:03:35;9.30;99.90
34837;DHT22;21053;50.848;4.652;2023-12-14T02:06:01;9.10;99.90
34837;DHT22;21053;50.848;4.652;2023-12-14T02:08:30;9.00;99.90
34837;DHT22;21053;50.848;4.652;2023-12-14T02:10:56;8.90;99.90
34837;DHT22;21053;50.848;4.652;2023-12-14T02:13:21;8.90;99.90
34837;DHT22;21053;50.848;4.652;2023-12-14T02:15:47;8.80;99.90
34837;DHT22;21053;50.848;4.652;2023-12-14T02:18:13;8.80;99.90
34837;DHT22;21053;50.848;4.652;2023-12-14T02:20:39;8.80;99.90
34837;DHT22;21053;50.848;4.652;2023-12-14T02:23:04;8.80;99.90
34837;DHT22;21053;50.848;4.652;2023-12-14T02:25:30;8.80;99.90
34837;DHT22;21053;50.848;4.652;2023-12-14T02:27:56;8.80;99.90
34837;DHT22;21053;50.848;4.652;2023-12-14T02:30:22;8.70;99.90
34837;DHT22;21053;50.848;4.652;2023-12-14T02:32:47;8.70;99.90
34837;DHT22;21053;50.848;4.652;2023-12-14T02:35:14;8.60;99.90
34837;DHT22;21053;50.848;4.652;2023-12-14T02:37:40;8.60;99.90
34837;DHT22;21053;50.848;4.652;2023-12-14T02:40:07;8.50;99.90
34837;DHT22;21053;50.848;4.652;2023-12-14T02:42:33;8.50;99.90
34837;DHT22;21053;50.848;4.652;2023-12-14T02:45:00;8.50;99.90
34837;DHT22;21053;50.848;4.652;2023-12-14T02:47:28;8.50;99.90
34837;DHT22;21053;50.848;4.652;2023-12-14T02:49:54;8.50;99.90
34837;DHT22;21053;50.848;4.652;2023-12-14T02:52:20;8.50;99.90
34837;DHT22;21053;50.848;4.652;2023-12-14T02:54:46;8.60;99.90
34837;DHT22;21053;50.848;4.652;2023-12-14T02:57:11;8.60;99.90
34837;DHT22;21053;50.848;4.652;2023-12-14T02:59:37;8.60;99.90
34837;DHT22;21053;50.848;4.652;2023-12-14T03:02:04;8.50;99.90
34837;DHT22;21053;50.848;4.652;2023-12-14T03:04:29;8.50;99.90
34837;DHT22;21053;50.848;4.652;2023-12-14T03:06:55;8.50;99.90
34837;DHT22;21053;50.848;4.652;2023-12-14T03:09:21;8.50;99.90
34837;DHT22;21053;50.848;4.652;2023-12-14T03:11:48;8.50;99.90
34837;DHT22;21053;50.848;4.652;2023-12-14T03:14:13;8.60;99.90
34837;DHT22;21053;50.848;4.652;2023-12-14T03:16:39;8.50;99.90
34837;DHT22;21053;50.848;4.652;2023-12-14T03:19:05;8.60;99.90
34837;DHT22;21053;50.848;4.652;2023-12-14T03:21:31;8.50;99.90
34837;DHT22;21053;50.848;4.652;2023-12-14T03:23:57;8.50;99.90
34837;DHT22;21053;50.848;4.652;2023-12-14T03:26:22;8.30;99.90
34837;DHT22;21053;50.848;4.652;2023-12-14T03:28:48;8.40;99.90
34837;DHT22;21053;50.848;4.652;2023-12-14T03:31:16;8.30;99.90
34837;DHT22;21053;50.848;4.652;2023-12-14T03:33:43;8.50;99.90
34837;DHT22;21053;50.848;4.652;2023-12-14T03:36:08;8.50;99.90
34837;DHT22;21053;50.848;4.652;2023-12-14T03:38:34;8.60;99.90
34837;DHT22;21053;50.848;4.652;2023-12-14T03:41:00;8.50;99.90
34837;DHT22;21053;50.848;4.652;2023-12-14T03:43:26;8.50;99.90
34837;DHT22;21053;50.848;4.652;2023-12-14T03:45:52;8.50;99.90
34837;DHT22;21053;50.848;4.652;2023-12-14T03:48:18;8.50;99.90
34837;DHT22;21053;50.848;4.652;2023-12-14T03:50:43;8.50;99.90
34837;DHT22;21053;50.848;4.652;2023-12-14T03:53:09;8.40;99.90
34837;DHT22;21053;50.848;4.652;2023-12-14T03:55:35;8.50;99.90
34837;DHT22;21053;50.848;4.652;2023-12-14T03:58:01;8.40;99.90
34837;DHT22;21053;50.848;4.652;2023-12-14T04:00:26;8.20;99.90
34837;DHT22;21053;50.848;4.652;2023-12-14T04:02:52;8.20;99.90
34837;DHT22;21053;50.848;4.652;2023-12-14T04:05:18;8.10;99.90
34837;DHT22;21053;50.848;4.652;2023-12-14T04:07:45;7.90;99.90
34837;DHT22;21053;50.848;4.652;2023-12-14T04:10:12;8.00;99.90
34837;DHT22;21053;50.848;4.652;2023-12-14T04:12:40;7.90;99.90
34837;DHT22;21053;50.848;4.652;2023-12-14T04:15:07;7.90;99.90
34837;DHT22;21053;50.848;4.652;2023-12-14T04:17:34;7.90;99.90
34837;DHT22;21053;50.848;4.652;2023-12-14T04:20:00;8.10;99.90
34837;DHT22;21053;50.848;4.652;2023-12-14T04:22:26;7.90;99.90
34837;DHT22;21053;50.848;4.652;2023-12-14T04:24:52;7.80;99.90
34837;DHT22;21053;50.848;4.652;2023-12-14T04:27:17;7.80;99.90
34837;DHT22;21053;50.848;4.652;2023-12-14T04:29:44;7.70;99.90
34837;DHT22;21053;50.848;4.652;2023-12-14T04:32:10;7.70;99.90
34837;DHT22;21053;50.848;4.652;2023-12-14T04:34:36;7.60;99.90
34837;DHT22;21053;50.848;4.652;2023-12-14T04:37:02;7.60;99.90
34837;DHT22;21053;50.848;4.652;2023-12-14T04:39:30;7.60;99.90
34837;DHT22;21053;50.848;4.652;2023-12-14T04:41:56;7.60;99.90
34837;DHT22;21053;50.848;4.652;2023-12-14T04:44:22;7.70;99.90
34837;DHT22;21053;50.848;4.652;2023-12-14T04:46:51;7.70;99.90
34837;DHT22;21053;50.848;4.652;2023-12-14T04:49:18;7.80;99.90
34837;DHT22;21053;50.848;4.652;2023-12-14T04:51:45;7.70;99.90
34837;DHT22;21053;50.848;4.652;2023-12-14T04:54:10;7.70;99.90
34837;DHT22;21053;50.848;4.652;2023-12-14T04:56:36;7.80;99.90
34837;DHT22;21053;50.848;4.652;2023-12-14T04:59:02;7.80;99.90
34837;DHT22;21053;50.848;4.652;2023-12-14T05:01:28;7.70;99.90
34837;DHT22;21053;50.848;4.652;2023-12-14T05:03:54;7.70;99.90
34837;DHT22;21053;50.848;4.652;2023-12-14T05:06:20;7.50;99.90
34837;DHT22;21053;50.848;4.652;2023-12-14T05:08:49;7.50;99.90
34837;DHT22;21053;50.848;4.652;2023-12-14T05:11:15;7.40;99.90
34837;DHT22;21053;50.848;4.652;2023-12-14T05:13:41;7.50;99.90
34837;DHT22;21053;50.848;4.652;2023-12-14T05:16:12;7.60;99.90
34837;DHT22;21053;50.848;4.652;2023-12-14T05:18:39;7.80;99.90
34837;DHT22;21053;50.848;4.652;2023-12-14T05:21:05;7.90;99.90
34837;DHT22;21053;50.848;4.652;2023-12-14T05:23:31;7.90;99.90
34837;DHT22;21053;50.848;4.652;2023-12-14T05:25:57;8.00;99.90
34837;DHT22;21053;50.848;4.652;2023-12-14T05:28:23;8.00;99.90
34837;DHT22;21053;50.848;4.652;2023-12-14T05:30:49;8.10;99.90
34837;DHT22;21053;50.848;4.652;2023-12-14T05:33:14;8.20;99.90
34837;DHT22;21053;50.848;4.652;2023-12-14T05:35:40;8.10;99.90
34837;DHT22;21053;50.848;4.652;2023-12-14T05:38:06;8.10;99.90
34837;DHT22;21053;50.848;4.652;2023-12-14T05:40:32;8.20;99.90
34837;DHT22;21053;50.848;4.652;2023-12-14T05:42:58;8.20;99.90
34837;DHT22;21053;50.848;4.652;2023-12-14T05:45:23;8.20;99.90
34837;DHT22;21053;50.848;4.652;2023-12-14T05:47:49;8.30;99.90
34837;DHT22;21053;50.848;4.652;2023-12-14T05:50:15;8.30;99.90
34837;DHT22;21053;50.848;4.652;2023-12-14T05:52:40;8.30;99.90
34837;DHT22;21053;50.848;4.652;2023-12-14T05:55:09;8.30;99.90
34837;DHT22;21053;50.848;4.652;2023-12-14T05:57:38;8.30;99.90
34837;DHT22;21053;50.848;4.652;2023-12-14T06:00:05;8.30;99.90
34837;DHT22;21053;50.848;4.652;2023-12-14T06:02:32;8.40;99.90
34837;DHT22;21053;50.848;4.652;2023-12-14T06:04:58;8.30;99.90
34837;DHT22;21053;50.848;4.652;2023-12-14T06:07:24;8.40;99.90
34837;DHT22;21053;50.848;4.652;2023-12-14T06:09:51;8.40;99.90
34837;DHT22;21053;50.848;4.652;2023-12-14T06:12:17;8.40;99.90
34837;DHT22;21053;50.848;4.652;2023-12-14T06:14:43;8.20;99.90
34837;DHT22;21053;50.848;4.652;2023-12-14T06:17:11;8.00;99.90
34837;DHT22;21053;50.848;4.652;2023-12-14T06:19:37;7.90;99.90
34837;DHT22;21053;50.848;4.652;2023-12-14T06:22:02;7.80;99.90
34837;DHT22;21053;50.848;4.652;2023-12-14T06:24:28;7.80;99.90
34837;DHT22;21053;50.848;4.652;2023-12-14T06:26:54;7.60;99.90
34837;DHT22;21053;50.848;4.652;2023-12-14T06:29:20;7.60;99.90
34837;DHT22;21053;50.848;4.652;2023-12-14T06:31:45;7.50;99.90
34837;DHT22;21053;50.848;4.652;2023-12-14T06:34:12;7.50;99.90
34837;DHT22;21053;50.848;4.652;2023-12-14T06:36:42;7.50;99.90
34837;DHT22;21053;50.848;4.652;2023-12-14T06:39:14;7.50;99.90
34837;DHT22;21053;50.848;4.652;2023-12-14T06:41:39;7.50;99.90
34837;DHT22;21053;50.848;4.652;2023-12-14T06:44:05;7.50;99.90
34837;DHT22;21053;50.848;4.652;2023-12-14T06:46:31;7.50;99.90
34837;DHT22;21053;50.848;4.652;2023-12-14T06:48:58;7.60;99.90
34837;DHT22;21053;50.848;4.652;2023-12-14T06:51:23;7.60;99.90
34837;DHT22;21053;50.848;4.652;2023-12-14T06:53:49;7.60;99.90
34837;DHT22;21053;50.848;4.652;2023-12-14T06:56:16;7.60;99.90
34837;DHT22;21053;50.848;4.652;2023-12-14T06:58:44;7.70;99.90
34837;DHT22;21053;50.848;4.652;2023-12-14T07:01:16;7.80;99.90
34837;DHT22;21053;50.848;4.652;2023-12-14T07:03:44;7.70;99.90
34837;DHT22;21053;50.848;4.652;2023-12-14T07:06:17;7.70;99.90
34837;DHT22;21053;50.848;4.652;2023-12-14T07:08:43;7.70;99.90
34837;DHT22;21053;50.848;4.652;2023-12-14T07:11:10;7.80;99.90
34837;DHT22;21053;50.848;4.652;2023-12-14T07:13:37;7.70;99.90
34837;DHT22;21053;50.848;4.652;2023-12-14T07:16:09;7.70;99.90
34837;DHT22;21053;50.848;4.652;2023-12-14T07:18:35;7.80;99.90
34837;DHT22;21053;50.848;4.652;2023-12-14T07:21:02;7.70;99.90
34837;DHT22;21053;50.848;4.652;2023-12-14T07:23:28;7.70;99.90
34837;DHT22;21053;50.848;4.652;2023-12-14T07:25:54;7.70;99.90
34837;DHT22;21053;50.848;4.652;2023-12-14T07:28:20;7.90;99.90
34837;DHT22;21053;50.848;4.652;2023-12-14T07:30:46;7.80;99.90
34837;DHT22;21053;50.848;4.652;2023-12-14T07:33:12;7.70;99.90
34837;DHT22;21053;50.848;4.652;2023-12-14T07:35:38;7.80;99.90
34837;DHT22;21053;50.848;4.652;2023-12-14T07:38:05;7.90;99.90
34837;DHT22;21053;50.848;4.652;2023-12-14T07:40:30;7.90;99.90
34837;DHT22;21053;50.848;4.652;2023-12-14T07:42:56;7.90;99.90
34837;DHT22;21053;50.848;4.652;2023-12-14T07:45:22;7.80;99.90
34837;DHT22;21053;50.848;4.652;2023-12-14T07:47:47;7.80;99.90
34837;DHT22;21053;50.848;4.652;2023-12-14T07:50:13;7.80;99.90
34837;DHT22;21053;50.848;4.652;2023-12-14T07:52:39;7.70;99.90
34837;DHT22;21053;50.848;4.652;2023-12-14T07:55:06;7.70;99.90
34837;DHT22;21053;50.848;4.652;2023-12-14T07:57:32;7.70;99.90
34837;DHT22;21053;50.848;4.652;2023-12-14T07:59:58;7.70;99.90
34837;DHT22;21053;50.848;4.652;2023-12-14T08:02:23;7.60;99.90
34837;DHT22;21053;50.848;4.652;2023-12-14T08:04:49;7.50;99.90
34837;DHT22;21053;50.848;4.652;2023-12-14T08:07:15;7.60;99.90
34837;DHT22;21053;50.848;4.652;2023-12-14T08:09:41;7.60;99.90
34837;DHT22;21053;50.848;4.652;2023-12-14T08:12:06;7.60;99.90
34837;DHT22;21053;50.848;4.652;2023-12-14T08:14:33;7.70;99.90
34837;DHT22;21053;50.848;4.652;2023-12-14T08:17:04;7.80;99.90
34837;DHT22;21053;50.848;4.652;2023-12-14T08:19:30;7.80;99.90
34837;DHT22;21053;50.848;4.652;2023-12-14T08:21:56;7.90;99.90
34837;DHT22;21053;50.848;4.652;2023-12-14T08:24:21;8.00;99.90
34837;DHT22;21053;50.848;4.652;2023-12-14T08:26:48;8.10;99.90
34837;DHT22;21053;50.848;4.652;2023-12-14T08:29:14;8.10;99.90
34837;DHT22;21053;50.848;4.652;2023-12-14T08:31:41;8.10;99.90
34837;DHT22;21053;50.848;4.652;2023-12-14T08:36:33;8.30;99.90
34837;DHT22;21053;50.848;4.652;2023-12-14T08:38:58;8.30;99.90
34837;DHT22;21053;50.848;4.652;2023-12-14T08:41:24;8.40;99.90
34837;DHT22;21053;50.848;4.652;2023-12-14T08:43:50;8.40;99.90
34837;DHT22;21053;50.848;4.652;2023-12-14T08:46:16;8.50;99.90
34837;DHT22;21053;50.848;4.652;2023-12-14T08:48:42;8.50;99.90
34837;DHT22;21053;50.848;4.652;2023-12-14T08:51:07;8.50;99.90
34837;DHT22;21053;50.848;4.652;2023-12-14T08:53:34;8.50;99.90
34837;DHT22;21053;50.848;4.652;2023-12-14T08:56:00;8.60;99.90
34837;DHT22;21053;50.848;4.652;2023-12-14T08:58:26;8.60;99.90
34837;DHT22;21053;50.848;4.652;2023-12-14T09:00:51;8.40;99.90
34837;DHT22;21053;50.848;4.652;2023-12-14T09:03:21;8.30;99.90
34837;DHT22;21053;50.848;4.652;2023-12-14T09:05:46;8.30;99.90
34837;DHT22;21053;50.848;4.652;2023-12-14T09:08:12;8.20;99.90
34837;DHT22;21053;50.848;4.652;2023-12-14T09:10:39;8.20;99.90
34837;DHT22;21053;50.848;4.652;2023-12-14T09:13:05;8.10;99.90
34837;DHT22;21053;50.848;4.652;2023-12-14T09:15:32;8.20;99.90
34837;DHT22;21053;50.848;4.652;2023-12-14T09:17:58;8.00;99.90
34837;DHT22;21053;50.848;4.652;2023-12-14T09:20:23;8.00;99.90
34837;DHT22;21053;50.848;4.652;2023-12-14T09:22:49;8.20;99.90
34837;DHT22;21053;50.848;4.652;2023-12-14T09:25:16;8.30;99.90
34837;DHT22;21053;50.848;4.652;2023-12-14T09:27:42;8.40;99.90
34837;DHT22;21053;50.848;4.652;2023-12-14T09:30:08;8.30;99.90
34837;DHT22;21053;50.848;4.652;2023-12-14T09:32:34;8.40;99.90
34837;DHT22;21053;50.848;4.652;2023-12-14T09:35:00;8.60;99.90
34837;DHT22;21053;50.848;4.652;2023-12-14T09:37:26;8.80;99.90
34837;DHT22;21053;50.848;4.652;2023-12-14T09:39:52;8.70;99.90
34837;DHT22;21053;50.848;4.652;2023-12-14T09:42:21;8.90;99.90
34837;DHT22;21053;50.848;4.652;2023-12-14T09:44:48;9.00;99.90
34837;DHT22;21053;50.848;4.652;2023-12-14T09:47:14;9.20;99.90
34837;DHT22;21053;50.848;4.652;2023-12-14T09:49:41;9.10;99.90
34837;DHT22;21053;50.848;4.652;2023-12-14T09:52:09;9.00;99.90
34837;DHT22;21053;50.848;4.652;2023-12-14T09:54:35;9.10;99.90
34837;DHT22;21053;50.848;4.652;2023-12-14T09:57:00;9.40;99.90
34837;DHT22;21053;50.848;4.652;2023-12-14T09:59:26;9.50;99.90
34837;DHT22;21053;50.848;4.652;2023-12-14T10:01:52;9.50;99.90
34837;DHT22;21053;50.848;4.652;2023-12-14T10:04:19;9.40;99.90
34837;DHT22;21053;50.848;4.652;2023-12-14T10:06:47;9.30;99.90
34837;DHT22;21053;50.848;4.652;2023-12-14T10:09:14;9.50;99.90
34837;DHT22;21053;50.848;4.652;2023-12-14T10:11:42;9.70;99.90
34837;DHT22;21053;50.848;4.652;2023-12-14T10:14:19;9.50;99.90
34837;DHT22;21053;50.848;4.652;2023-12-14T10:16:48;9.40;99.90
34837;DHT22;21053;50.848;4.652;2023-12-14T10:19:14;9.20;99.90
34837;DHT22;21053;50.848;4.652;2023-12-14T10:21:40;9.30;99.90
34837;DHT22;21053;50.848;4.652;2023-12-14T10:24:07;9.20;99.90
34837;DHT22;21053;50.848;4.652;2023-12-14T10:26:32;9.20;99.90
34837;DHT22;21053;50.848;4.652;2023-12-14T10:28:58;9.30;99.90
34837;DHT22;21053;50.848;4.652;2023-12-14T10:31:27;9.50;99.90
34837;DHT22;21053;50.848;4.652;2023-12-14T10:33:53;9.60;99.90
34837;DHT22;21053;50.848;4.652;2023-12-14T10:36:21;9.50;99.90
34837;DHT22;21053;50.848;4.652;2023-12-14T10:38:56;9.50;99.90
34837;DHT22;21053;50.848;4.652;2023-12-14T10:41:22;9.20;99.90
34837;DHT22;21053;50.848;4.652;2023-12-14T10:43:50;8.90;99.90
34837;DHT22;21053;50.848;4.652;2023-12-14T10:46:23;8.90;99.90
34837;DHT22;21053;50.848;4.652;2023-12-14T10:48:50;9.20;99.90
34837;DHT22;21053;50.848;4.652;2023-12-14T10:51:20;9.30;99.90
34837;DHT22;21053;50.848;4.652;2023-12-14T10:53:47;9.50;99.90
34837;DHT22;21053;50.848;4.652;2023-12-14T10:56:16;9.40;99.90
34837;DHT22;21053;50.848;4.652;2023-12-14T10:58:53;9.30;99.90
34837;DHT22;21053;50.848;4.652;2023-12-14T11:01:21;9.10;99.90
34837;DHT22;21053;50.848;4.652;2023-12-14T11:03:48;9.00;99.90
34837;DHT22;21053;50.848;4.652;2023-12-14T11:08:53;8.90;99.90
34837;DHT22;21053;50.848;4.652;2023-12-14T11:11:20;8.90;99.90
34837;DHT22;21053;50.848;4.652;2023-12-14T11:13:53;9.00;99.90
34837;DHT22;21053;50.848;4.652;2023-12-14T11:16:26;9.20;99.90
34837;DHT22;21053;50.848;4.652;2023-12-14T11:24:31;10.20;99.90
34837;DHT22;21053;50.848;4.652;2023-12-14T11:26:58;10.80;99.90
34837;DHT22;21053;50.848;4.652;2023-12-14T11:29:26;10.80;99.90
34837;DHT22;21053;50.848;4.652;2023-12-14T11:31:52;10.90;99.90
34837;DHT22;21053;50.848;4.652;2023-12-14T11:34:24;10.60;99.90
34837;DHT22;21053;50.848;4.652;2023-12-14T11:36:50;10.70;99.90
34837;DHT22;21053;50.848;4.652;2023-12-14T11:39:16;10.70;99.90
34837;DHT22;21053;50.848;4.652;2023-12-14T11:44:27;10.50;99.90
34837;DHT22;21053;50.848;4.652;2023-12-14T11:46:53;10.50;99.90
34837;DHT22;21053;50.848;4.652;2023-12-14T11:49:19;10.40;99.90
34837;DHT22;21053;50.848;4.652;2023-12-14T11:51:54;10.40;99.90
34837;DHT22;21053;50.848;4.652;2023-12-14T11:54:20;10.00;99.90
34837;DHT22;21053;50.848;4.652;2023-12-14T11:56:50;10.10;99.90
34837;DHT22;21053;50.848;4.652;2023-12-14T11:59:21;9.90;99.90
34837;DHT22;21053;50.848;4.652;2023-12-14T12:01:54;9.90;99.90
34837;DHT22;21053;50.848;4.652;2023-12-14T12:04:20;10.00;99.90
34837;DHT22;21053;50.848;4.652;2023-12-14T12:06:46;10.10;99.90
34837;DHT22;21053;50.848;4.652;2023-12-14T12:09:12;10.00;99.90
34837;DHT22;21053;50.848;4.652;2023-12-14T12:11:38;10.00;99.90
34837;DHT22;21053;50.848;4.652;2023-12-14T12:14:05;9.90;99.90
34837;DHT22;21053;50.848;4.652;2023-12-14T12:16:31;9.70;99.90
34837;DHT22;21053;50.848;4.652;2023-12-14T12:18:57;9.80;99.90
34837;DHT22;21053;50.848;4.652;2023-12-14T12:21:22;9.70;99.90
34837;DHT22;21053;50.848;4.652;2023-12-14T12:23:48;9.60;99.90
34837;DHT22;21053;50.848;4.652;2023-12-14T12:26:14;9.50;99.90
34837;DHT22;21053;50.848;4.652;2023-12-14T12:28:40;9.60;99.90
34837;DHT22;21053;50.848;4.652;2023-12-14T12:31:06;9.50;99.90
34837;DHT22;21053;50.848;4.652;2023-12-14T12:33:33;9.40;99.90
34837;DHT22;21053;50.848;4.652;2023-12-14T12:36:03;9.30;99.90
34837;DHT22;21053;50.848;4.652;2023-12-14T12:38:30;9.30;99.90
34837;DHT22;21053;50.848;4.652;2023-12-14T12:40:57;9.40;99.90
34837;DHT22;21053;50.848;4.652;2023-12-14T12:43:25;9.30;99.90
34837;DHT22;21053;50.848;4.652;2023-12-14T12:45:51;9.10;99.90
34837;DHT22;21053;50.848;4.652;2023-12-14T12:48:16;9.10;99.90
34837;DHT22;21053;50.848;4.652;2023-12-14T12:50:42;9.10;99.90
34837;DHT22;21053;50.848;4.652;2023-12-14T12:53:11;9.10;99.90
34837;DHT22;21053;50.848;4.652;2023-12-14T12:55:38;9.10;99.90
34837;DHT22;21053;50.848;4.652;2023-12-14T12:58:06;9.30;99.90
34837;DHT22;21053;50.848;4.652;2023-12-14T13:00:35;9.30;99.90
34837;DHT22;21053;50.848;4.652;2023-12-14T13:03:02;9.30;99.90
34837;DHT22;21053;50.848;4.652;2023-12-14T13:05:31;9.40;99.90
34837;DHT22;21053;50.848;4.652;2023-12-14T13:07:57;9.50;99.90
34837;DHT22;21053;50.848;4.652;2023-12-14T13:10:25;9.60;99.90
34837;DHT22;21053;50.848;4.652;2023-12-14T13:12:58;9.70;99.90
34837;DHT22;21053;50.848;4.652;2023-12-14T13:15:24;9.50;99.90
34837;DHT22;21053;50.848;4.652;2023-12-14T13:17:52;9.40;99.90
34837;DHT22;21053;50.848;4.652;2023-12-14T13:20:17;9.50;99.90
34837;DHT22;21053;50.848;4.652;2023-12-14T13:22:45;9.50;99.90
34837;DHT22;21053;50.848;4.652;2023-12-14T13:25:13;9.40;99.90
34837;DHT22;21053;50.848;4.652;2023-12-14T13:27:42;9.50;99.90
34837;DHT22;21053;50.848;4.652;2023-12-14T13:30:08;9.60;99.90
34837;DHT22;21053;50.848;4.652;2023-12-14T13:32:37;9.50;99.90
34837;DHT22;21053;50.848;4.652;2023-12-14T13:35:04;9.50;99.90
34837;DHT22;21053;50.848;4.652;2023-12-14T13:37:32;9.40;99.90
34837;DHT22;21053;50.848;4.652;2023-12-14T13:39:58;9.50;99.90
34837;DHT22;21053;50.848;4.652;2023-12-14T13:42:24;9.60;99.90
34837;DHT22;21053;50.848;4.652;2023-12-14T13:44:51;9.70;99.90
34837;DHT22;21053;50.848;4.652;2023-12-14T13:47:16;9.80;99.90
34837;DHT22;21053;50.848;4.652;2023-12-14T13:49:42;9.70;99.90
34837;DHT22;21053;50.848;4.652;2023-12-14T13:52:10;9.70;99.90
34837;DHT22;21053;50.848;4.652;2023-12-14T13:54:35;9.70;99.90
34837;DHT22;21053;50.848;4.652;2023-12-14T13:57:03;9.50;99.90
34837;DHT22;21053;50.848;4.652;2023-12-14T13:59:32;9.40;99.90
34837;DHT22;21053;50.848;4.652;2023-12-14T14:01:59;9.40;99.90
34837;DHT22;21053;50.848;4.652;2023-12-14T14:04:28;9.40;99.90
34837;DHT22;21053;50.848;4.652;2023-12-14T14:06:54;9.30;99.90
34837;DHT22;21053;50.848;4.652;2023-12-14T14:09:23;9.30;99.90
34837;DHT22;21053;50.848;4.652;2023-12-14T14:11:49;9.30;99.90
34837;DHT22;21053;50.848;4.652;2023-12-14T14:14:17;9.00;99.90
34837;DHT22;21053;50.848;4.652;2023-12-14T14:16:46;8.90;99.90
34837;DHT22;21053;50.848;4.652;2023-12-14T14:19:13;8.90;99.90
34837;DHT22;21053;50.848;4.652;2023-12-14T14:21:40;9.00;99.90
34837;DHT22;21053;50.848;4.652;2023-12-14T14:24:07;9.00;99.90
34837;DHT22;21053;50.848;4.652;2023-12-14T14:26:35;9.10;99.90
34837;DHT22;21053;50.848;4.652;2023-12-14T14:29:01;9.10;99.90
34837;DHT22;21053;50.848;4.652;2023-12-14T14:31:28;9.10;99.90
34837;DHT22;21053;50.848;4.652;2023-12-14T14:33:58;9.10;99.90
34837;DHT22;21053;50.848;4.652;2023-12-14T14:36:26;9.20;99.90
34837;DHT22;21053;50.848;4.652;2023-12-14T14:38:53;9.20;99.90
34837;DHT22;21053;50.848;4.652;2023-12-14T14:41:21;9.20;99.90
34837;DHT22;21053;50.848;4.652;2023-12-14T14:43:49;9.30;99.90
34837;DHT22;21053;50.848;4.652;2023-12-14T14:46:15;9.30;99.90
34837;DHT22;21053;50.848;4.652;2023-12-14T14:48:44;9.20;99.90
34837;DHT22;21053;50.848;4.652;2023-12-14T14:51:11;9.20;99.90
34837;DHT22;21053;50.848;4.652;2023-12-14T14:53:37;9.20;99.90
34837;DHT22;21053;50.848;4.652;2023-12-14T14:56:04;9.10;99.90
34837;DHT22;21053;50.848;4.652;2023-12-14T14:58:30;9.10;99.90
34837;DHT22;21053;50.848;4.652;2023-12-14T15:00:57;9.10;99.90
34837;DHT22;21053;50.848;4.652;2023-12-14T15:03:23;9.10;99.90
34837;DHT22;21053;50.848;4.652;2023-12-14T15:05:48;9.00;99.90
34837;DHT22;21053;50.848;4.652;2023-12-14T15:08:14;9.00;99.90
34837;DHT22;21053;50.848;4.652;2023-12-14T15:10:41;9.00;99.90
34837;DHT22;21053;50.848;4.652;2023-12-14T15:13:06;9.00;99.90
34837;DHT22;21053;50.848;4.652;2023-12-14T15:15:32;9.00;99.90
34837;DHT22;21053;50.848;4.652;2023-12-14T15:17:58;9.00;99.90
34837;DHT22;21053;50.848;4.652;2023-12-14T15:20:24;9.10;99.90
34837;DHT22;21053;50.848;4.652;2023-12-14T15:22:52;9.10;99.90
34837;DHT22;21053;50.848;4.652;2023-12-14T15:25:17;9.00;99.90
34837;DHT22;21053;50.848;4.652;2023-12-14T15:27:43;9.00;99.90
34837;DHT22;21053;50.848;4.652;2023-12-14T15:30:10;9.00;99.90
34837;DHT22;21053;50.848;4.652;2023-12-14T15:32:37;9.00;99.90
34837;DHT22;21053;50.848;4.652;2023-12-14T15:35:06;9.00;99.90
34837;DHT22;21053;50.848;4.652;2023-12-14T15:37:32;9.00;99.90
34837;DHT22;21053;50.848;4.652;2023-12-14T15:39:58;9.20;99.90
34837;DHT22;21053;50.848;4.652;2023-12-14T15:42:25;9.00;99.90
34837;DHT22;21053;50.848;4.652;2023-12-14T15:44:50;8.90;99.90
34837;DHT22;21053;50.848;4.652;2023-12-14T15:47:16;9.00;99.90
34837;DHT22;21053;50.848;4.652;2023-12-14T15:49:42;8.90;99.90
34837;DHT22;21053;50.848;4.652;2023-12-14T15:52:08;8.90;99.90
34837;DHT22;21053;50.848;4.652;2023-12-14T15:54:35;8.90;99.90